Strona główna
METAR-TAF:

METAR-TAF

Lotnisko :

San Fernando, Argentyna

Szerokość geograficzna: 34-27-11S, Długość geograficzna: 058-35-23W, wysokość: 3 m

Aktualna obserwacja pogody

Raport powstał 54 minut temu, godzina 09:00 UTC
Wiatr 2 kt od północno-północny zachód
Temperatura 18°C
Wilgotność 73%
Ciśnienie 1012 hPa
Widzialność 10 km lub więcej
Brak chmur poniżej 1500 m i brak chmur cumulonimbus

METAR: SADF 210900Z 34002KT CAVOK 18/13 Q1012

czas: 06:54 (09:54 UTC)

Prognoza

Raport powstał 4 godziny i 54 minut temu, godzina 05:00 UTC
Prognoza ważna od 21 godzina 06 UTC do 22 godzina 06 UTC
Wiatr 10 kt od północ
Widzialność 10 km lub więcej
Brak chmur poniżej 1500 m i brak chmur cumulonimbus

TAF: SADF 210500Z 2106/2206 36010KT CAVOK TX33/2118Z TN18/2110Z

Obserwacja i prognoza pogody dla ponad 4000 lotnisk (raport METAR i TAF).

Dostępne stacje oznaczono żółtymi i czerwonymi punktami na mapie.

Najedź kursorem aby zobaczyć nazwę stacji.

Kliknij aby zobaczyć obserwacje i prognozy pogody.

Aby zmienić mapę: kliknij na zielony przycisk z czarnym krzyżykiem, aby powiększyć; na zielony przycisk z myślnikiem, aby pomniejszyć; na zielone strzałki, aby przejść do map sąsiednich.


METAR-TAF: